Time;durP1;ratioP1;P1;durP2;ratioP2;P2;SDS_P1;SDS_P2;PMS_P1;PMS_P2;Temp;Humidity;BMP_temperature;BMP_pressure;BME280_temperature;BME280_humidity;BME280_pressure;Samples;Min_cycle;Max_cycle;Signal;HPM_P1;HPM_P2
2023/05/09 00:00:31;;;;;;;8.15;4.97;;;;;;;;;;5064476;28;20104;-81
2023/05/09 00:02:57;;;;;;;9.15;5.55;;;;;;;;;;5065321;28;20077;-79
2023/05/09 00:05:23;;;;;;;8.00;5.30;;;;;;;;;;5065497;28;20037;-82
2023/05/09 00:07:50;;;;;;;6.88;5.00;;;;;;;;;;5064172;28;20486;-76
2023/05/09 00:10:16;;;;;;;9.35;5.07;;;;;;;;;;5061349;28;20109;-79
2023/05/09 00:12:42;;;;;;;7.57;4.78;;;;;;;;;;5061264;28;20048;-78
2023/05/09 00:15:09;;;;;;;6.60;4.70;;;;;;;;;;5064439;28;20021;-80
2023/05/09 00:17:35;;;;;;;7.85;4.72;;;;;;;;;;5064006;28;20501;-80
2023/05/09 00:20:04;;;;;;;7.82;4.90;;;;;;;;;;5064300;28;20113;-80
2023/05/09 00:22:30;;;;;;;7.63;5.00;;;;;;;;;;5062223;28;20060;-81
2023/05/09 00:24:56;;;;;;;7.50;4.72;;;;;;;;;;5060380;28;20136;-78
2023/05/09 00:27:22;;;;;;;8.18;5.07;;;;;;;;;;5062757;28;20048;-82
2023/05/09 00:29:48;;;;;;;7.95;5.00;;;;;;;;;;5068291;28;20025;-83
2023/05/09 00:32:14;;;;;;;8.27;4.53;;;;;;;;;;5072180;28;20016;-81
2023/05/09 00:34:40;;;;;;;10.52;4.80;;;;;;;;;;5071928;28;20021;-80
2023/05/09 00:37:06;;;;;;;6.88;5.00;;;;;;;;;;5061486;28;20030;-77
2023/05/09 00:39:32;;;;;;;8.10;4.70;;;;;;;;;;5054013;28;20458;-76
2023/05/09 00:41:58;;;;;;;8.68;4.82;;;;;;;;;;5055474;28;20072;-78
2023/05/09 00:44:24;;;;;;;6.65;5.03;;;;;;;;;;5055179;28;20025;-78
2023/05/09 00:46:51;;;;;;;8.13;4.80;;;;;;;;;;5055026;28;20063;-77
2023/05/09 00:49:17;;;;;;;8.00;4.68;;;;;;;;;;5055126;28;20055;-78
2023/05/09 00:51:43;;;;;;;8.88;5.07;;;;;;;;;;5053258;28;20037;-76
2023/05/09 00:54:10;;;;;;;8.18;4.95;;;;;;;;;;5054798;28;20052;-76
2023/05/09 00:56:36;;;;;;;9.48;5.05;;;;;;;;;;5047391;28;20029;-79
2023/05/09 00:59:03;;;;;;;9.95;5.25;;;;;;;;;;5056566;28;20028;-78
2023/05/09 01:01:29;;;;;;;9.18;5.07;;;;;;;;;;5055116;28;20027;-77
2023/05/09 01:03:55;;;;;;;9.32;5.18;;;;;;;;;;5053489;28;20036;-79
2023/05/09 01:06:24;;;;;;;7.40;4.65;;;;;;;;;;5053374;28;20044;-78
2023/05/09 01:09:06;;;;;;;9.15;4.88;;;;;;;;;;5053295;28;20039;-80
2023/05/09 01:11:43;;;;;;;8.63;4.80;;;;;;;;;;5054921;28;20100;-78
2023/05/09 01:14:20;;;;;;;8.85;5.35;;;;;;;;;;5056008;28;20037;-78
2023/05/09 01:16:55;;;;;;;8.07;5.05;;;;;;;;;;5055362;28;20029;-78
2023/05/09 01:19:21;;;;;;;9.35;5.10;;;;;;;;;;5055268;28;20029;-75
2023/05/09 01:21:48;;;;;;;7.97;4.82;;;;;;;;;;5055479;28;20075;-77
2023/05/09 01:24:38;;;;;;;7.88;5.57;;;;;;;;;;5055286;28;20025;-78
2023/05/09 01:27:04;;;;;;;8.95;5.30;;;;;;;;;;5009450;28;20045;-75
2023/05/09 01:29:37;;;;;;;10.02;5.15;;;;;;;;;;5027103;28;20045;-78
2023/05/09 01:32:07;;;;;;;7.43;5.00;;;;;;;;;;5028493;28;20059;-78
2023/05/09 01:34:33;;;;;;;10.10;5.40;;;;;;;;;;5033555;28;20021;-78
2023/05/09 01:37:01;;;;;;;9.38;5.30;;;;;;;;;;5035039;28;20049;-79
2023/05/09 01:39:28;;;;;;;8.10;5.13;;;;;;;;;;5035405;28;20036;-79
2023/05/09 01:41:55;;;;;;;8.23;4.82;;;;;;;;;;5034731;28;20029;-82
2023/05/09 01:44:22;;;;;;;7.60;5.13;;;;;;;;;;5015545;28;20029;-79
2023/05/09 01:46:48;;;;;;;9.23;5.30;;;;;;;;;;5035932;28;20033;-78
2023/05/09 01:49:16;;;;;;;8.55;5.18;;;;;;;;;;5035967;28;20544;-78
2023/05/09 01:54:45;;;;;;;6.55;4.78;;;;;;;;;;5026864;28;20071;-80
2023/05/09 01:57:12;;;;;;;8.23;5.32;;;;;;;;;;5034452;28;20038;-79
2023/05/09 01:59:40;;;;;;;9.10;5.47;;;;;;;;;;5031456;28;20029;-76
2023/05/09 02:02:07;;;;;;;7.55;5.53;;;;;;;;;;5033953;28;20029;-79
2023/05/09 02:04:33;;;;;;;8.48;5.05;;;;;;;;;;5030209;28;20040;-79
2023/05/09 02:07:00;;;;;;;7.47;5.18;;;;;;;;;;5055467;28;20535;-77
2023/05/09 02:09:26;;;;;;;8.70;5.10;;;;;;;;;;5063813;28;20017;-78
2023/05/09 02:11:52;;;;;;;7.43;5.15;;;;;;;;;;5067060;28;20041;-82
2023/05/09 02:14:18;;;;;;;7.70;5.13;;;;;;;;;;5069347;28;20017;-83
2023/05/09 02:16:44;;;;;;;9.05;5.00;;;;;;;;;;5059942;28;20047;-82
2023/05/09 02:19:10;;;;;;;8.77;5.20;;;;;;;;;;5065437;28;20091;-82
2023/05/09 02:21:36;;;;;;;9.73;5.40;;;;;;;;;;5065289;28;20038;-81
2023/05/09 02:24:03;;;;;;;8.77;5.20;;;;;;;;;;5066513;28;20029;-83
2023/05/09 02:26:29;;;;;;;7.88;5.35;;;;;;;;;;5067781;28;20049;-82
2023/05/09 02:28:55;;;;;;;9.35;5.40;;;;;;;;;;5068491;28;20028;-82
2023/05/09 02:31:22;;;;;;;7.65;5.18;;;;;;;;;;5067214;28;20048;-84
2023/05/09 02:33:49;;;;;;;7.05;5.00;;;;;;;;;;5066972;28;20021;-82
2023/05/09 02:36:15;;;;;;;8.90;5.60;;;;;;;;;;5069211;28;20024;-83
2023/05/09 02:39:01;;;;;;;9.48;5.30;;;;;;;;;;5068992;28;20036;-81
2023/05/09 02:41:27;;;;;;;8.32;5.25;;;;;;;;;;5064871;28;20039;-77
2023/05/09 02:43:53;;;;;;;8.02;5.18;;;;;;;;;;5071391;28;20021;-84
2023/05/09 02:46:19;;;;;;;8.30;4.90;;;;;;;;;;5071879;28;20062;-84
2023/05/09 02:48:45;;;;;;;9.75;5.30;;;;;;;;;;5072366;28;20035;-84
2023/05/09 02:51:11;;;;;;;9.15;5.30;;;;;;;;;;5066814;28;20066;-84
2023/05/09 02:56:41;;;;;;;;;;;;;;;;;;5070227;28;20607;-85
2023/05/09 02:59:07;;;;;;;8.93;5.57;;;;;;;;;;5072448;28;19904;-84
2023/05/09 03:01:33;;;;;;;9.15;5.68;;;;;;;;;;5072817;28;20025;-84
2023/05/09 03:03:59;;;;;;;7.47;5.07;;;;;;;;;;5070223;28;20074;-83
2023/05/09 03:06:25;;;;;;;10.48;4.95;;;;;;;;;;5070388;28;20033;-85
2023/05/09 03:08:52;;;;;;;7.50;5.70;;;;;;;;;;5062323;28;20030;-84
2023/05/09 03:11:18;;;;;;;15.60;5.60;;;;;;;;;;5071677;28;20017;-83
2023/05/09 03:13:44;;;;;;;9.38;5.10;;;;;;;;;;5070334;28;20021;-85
2023/05/09 03:16:13;;;;;;;9.35;5.55;;;;;;;;;;5068875;28;20055;-83
2023/05/09 03:18:39;;;;;;;8.48;5.28;;;;;;;;;;5068843;28;20028;-84
2023/05/09 03:21:05;;;;;;;10.68;5.53;;;;;;;;;;5067842;28;20025;-84
2023/05/09 03:23:31;;;;;;;9.05;5.28;;;;;;;;;;5068653;28;20029;-83
2023/05/09 03:25:57;;;;;;;8.07;5.50;;;;;;;;;;5068567;28;20080;-82
2023/05/09 03:28:23;;;;;;;7.18;5.20;;;;;;;;;;5067037;28;20025;-81
2023/05/09 03:30:50;;;;;;;8.63;5.20;;;;;;;;;;5068301;28;20036;-84
2023/05/09 03:33:16;;;;;;;7.75;4.95;;;;;;;;;;5070239;28;20032;-82
2023/05/09 03:35:42;;;;;;;9.02;5.32;;;;;;;;;;5069626;28;20037;-83
2023/05/09 03:38:45;;;;;;;8.25;5.15;;;;;;;;;;5067203;28;20032;-84
2023/05/09 03:41:16;;;;;;;8.70;4.95;;;;;;;;;;5051255;28;20029;-84
2023/05/09 03:43:42;;;;;;;7.50;4.78;;;;;;;;;;5058365;28;20037;-84
2023/05/09 03:46:08;;;;;;;12.10;5.10;;;;;;;;;;5072840;28;20051;-84
2023/05/09 03:48:34;;;;;;;8.02;5.25;;;;;;;;;;5066004;28;20377;-82
2023/05/09 03:51:01;;;;;;;10.55;5.85;;;;;;;;;;5061515;28;20076;-83
2023/05/09 03:53:27;;;;;;;7.75;5.07;;;;;;;;;;5064131;28;20025;-83
2023/05/09 03:55:53;;;;;;;7.75;4.82;;;;;;;;;;5055458;28;20032;-83
2023/05/09 03:58:19;;;;;;;7.80;4.93;;;;;;;;;;5071885;28;20025;-84
2023/05/09 04:00:45;;;;;;;8.55;5.18;;;;;;;;;;5071123;28;20041;-83
2023/05/09 04:03:12;;;;;;;7.90;5.13;;;;;;;;;;5071192;28;20047;-81
2023/05/09 04:05:38;;;;;;;8.10;5.00;;;;;;;;;;5069525;28;20044;-83
2023/05/09 04:08:04;;;;;;;7.85;5.10;;;;;;;;;;5070233;28;20021;-81
2023/05/09 04:10:31;;;;;;;8.43;4.82;;;;;;;;;;5070952;28;20036;-77
2023/05/09 04:12:57;;;;;;;9.18;5.15;;;;;;;;;;5068254;28;20029;-83
2023/05/09 04:15:23;;;;;;;8.25;5.25;;;;;;;;;;5071341;28;20039;-82
2023/05/09 04:17:49;;;;;;;8.02;4.90;;;;;;;;;;5071594;28;20029;-83
2023/05/09 04:20:15;;;;;;;7.00;4.95;;;;;;;;;;5070004;28;20026;-83
2023/05/09 04:22:41;;;;;;;8.27;4.95;;;;;;;;;;5070284;28;20033;-83
2023/05/09 04:25:11;;;;;;;10.73;5.30;;;;;;;;;;5055320;28;20137;-82
2023/05/09 04:27:37;;;;;;;8.88;4.85;;;;;;;;;;5071486;28;20101;-82
2023/05/09 04:30:03;;;;;;;9.38;4.80;;;;;;;;;;5056436;28;20036;-81
2023/05/09 04:32:30;;;;;;;12.35;6.10;;;;;;;;;;5068622;28;20039;-83
2023/05/09 04:34:56;;;;;;;8.25;4.82;;;;;;;;;;5068723;28;20021;-83
2023/05/09 04:40:46;;;;;;;10.18;5.20;;;;;;;;;;5064646;28;20074;-82
2023/05/09 04:43:12;;;;;;;7.57;5.20;;;;;;;;;;5065151;28;20093;-83
2023/05/09 04:45:38;;;;;;;7.65;4.90;;;;;;;;;;5065628;28;20033;-81
2023/05/09 04:48:04;;;;;;;10.63;5.78;;;;;;;;;;5063204;28;20043;-82
2023/05/09 04:50:30;;;;;;;10.82;5.50;;;;;;;;;;5067561;28;20021;-81
2023/05/09 04:52:56;;;;;;;10.63;6.13;;;;;;;;;;5072558;28;20021;-82
2023/05/09 04:55:22;;;;;;;11.60;6.85;;;;;;;;;;5072147;28;20050;-82
2023/05/09 04:57:49;;;;;;;9.73;5.53;;;;;;;;;;5067873;28;20029;-83
2023/05/09 05:00:16;;;;;;;11.32;5.35;;;;;;;;;;5064861;28;20043;-81
2023/05/09 05:02:42;;;;;;;9.60;5.35;;;;;;;;;;5061267;28;20056;-82
2023/05/09 05:05:08;;;;;;;7.80;5.18;;;;;;;;;;5059007;28;20025;-81
2023/05/09 05:07:34;;;;;;;10.18;5.65;;;;;;;;;;5066288;28;20029;-82
2023/05/09 05:10:00;;;;;;;10.00;5.20;;;;;;;;;;5063936;28;20028;-78
2023/05/09 05:12:26;;;;;;;7.82;5.28;;;;;;;;;;5040436;28;20026;-79
2023/05/09 05:14:52;;;;;;;8.80;5.03;;;;;;;;;;5041868;28;20044;-77
2023/05/09 05:17:18;;;;;;;9.07;5.43;;;;;;;;;;5062554;28;20025;-81
2023/05/09 05:19:44;;;;;;;7.65;5.30;;;;;;;;;;5065918;28;20047;-79
2023/05/09 05:22:10;;;;;;;9.43;5.30;;;;;;;;;;5058278;28;20068;-80
2023/05/09 05:24:36;;;;;;;8.48;5.43;;;;;;;;;;5061684;28;20081;-79
2023/05/09 05:27:02;;;;;;;8.98;5.40;;;;;;;;;;5060097;28;20065;-78
2023/05/09 05:29:29;;;;;;;7.93;5.38;;;;;;;;;;5063380;28;20032;-80
2023/05/09 05:31:55;;;;;;;8.88;5.57;;;;;;;;;;5062957;28;20108;-81
2023/05/09 05:34:21;;;;;;;10.00;5.57;;;;;;;;;;5054039;28;20072;-78
2023/05/09 05:36:47;;;;;;;8.95;5.30;;;;;;;;;;5046054;28;20033;-79
2023/05/09 05:39:13;;;;;;;12.52;5.80;;;;;;;;;;5055520;28;20029;-81
2023/05/09 05:41:39;;;;;;;9.27;5.68;;;;;;;;;;5050181;28;20082;-80
2023/05/09 05:44:05;;;;;;;10.02;5.70;;;;;;;;;;5053448;28;20074;-81
2023/05/09 05:46:31;;;;;;;8.73;5.90;;;;;;;;;;5061781;28;20031;-78
2023/05/09 05:48:57;;;;;;;9.40;5.82;;;;;;;;;;5061373;28;20025;-80
2023/05/09 05:51:23;;;;;;;10.70;5.93;;;;;;;;;;5062425;28;20052;-81
2023/05/09 05:53:50;;;;;;;8.63;5.72;;;;;;;;;;5062427;28;20032;-80
2023/05/09 05:56:16;;;;;;;10.65;5.70;;;;;;;;;;5059248;28;20033;-81
2023/05/09 05:58:42;;;;;;;9.15;5.80;;;;;;;;;;5060691;28;20025;-81
2023/05/09 06:01:08;;;;;;;9.57;5.65;;;;;;;;;;5066215;28;20092;-83
2023/05/09 06:03:34;;;;;;;10.13;5.85;;;;;;;;;;5070006;28;20021;-81
2023/05/09 06:06:00;;;;;;;10.23;5.70;;;;;;;;;;5070223;28;20052;-80
2023/05/09 06:08:27;;;;;;;12.93;6.68;;;;;;;;;;5057780;28;20021;-77
2023/05/09 06:10:53;;;;;;;10.65;6.20;;;;;;;;;;5054421;28;20027;-77
2023/05/09 06:13:19;;;;;;;10.25;6.13;;;;;;;;;;5054692;28;20419;-78
2023/05/09 06:15:45;;;;;;;9.85;6.20;;;;;;;;;;5035211;28;20029;-78
2023/05/09 06:18:11;;;;;;;10.07;6.20;;;;;;;;;;5052117;28;20103;-76
2023/05/09 06:20:37;;;;;;;9.65;5.72;;;;;;;;;;5053173;28;20033;-77
2023/05/09 06:23:03;;;;;;;9.50;5.75;;;;;;;;;;5053435;28;20037;-77
2023/05/09 06:25:29;;;;;;;10.05;5.78;;;;;;;;;;5053638;28;20037;-77
2023/05/09 06:27:55;;;;;;;11.30;6.07;;;;;;;;;;5050190;28;20037;-77
2023/05/09 06:30:21;;;;;;;8.77;5.72;;;;;;;;;;5045514;28;20044;-77
2023/05/09 06:32:47;;;;;;;9.13;5.75;;;;;;;;;;5047262;28;20045;-77
2023/05/09 06:35:14;;;;;;;9.93;5.88;;;;;;;;;;5051368;28;20430;-77
2023/05/09 06:37:40;;;;;;;8.07;6.05;;;;;;;;;;5052007;28;20125;-78
2023/05/09 06:40:06;;;;;;;8.82;5.88;;;;;;;;;;5053890;28;20052;-77
2023/05/09 06:42:33;;;;;;;9.02;5.90;;;;;;;;;;5052576;28;20079;-78
2023/05/09 06:44:59;;;;;;;8.43;5.80;;;;;;;;;;5055738;28;20232;-78
2023/05/09 06:47:25;;;;;;;8.30;5.95;;;;;;;;;;5054984;28;20063;-78
2023/05/09 06:49:51;;;;;;;10.00;6.45;;;;;;;;;;5034317;28;20053;-77
2023/05/09 06:52:17;;;;;;;8.35;5.90;;;;;;;;;;5035209;28;20073;-78
2023/05/09 06:54:43;;;;;;;8.82;5.63;;;;;;;;;;5037060;28;20037;-77
2023/05/09 06:57:09;;;;;;;11.27;6.20;;;;;;;;;;5034097;28;20084;-77
2023/05/09 06:59:35;;;;;;;10.15;6.00;;;;;;;;;;5041629;28;20043;-76
2023/05/09 07:02:01;;;;;;;8.85;5.93;;;;;;;;;;5035115;28;20056;-77
2023/05/09 07:04:27;;;;;;;10.20;6.57;;;;;;;;;;5049491;28;20378;-77
2023/05/09 07:06:53;;;;;;;8.93;5.90;;;;;;;;;;5055058;28;20044;-78
2023/05/09 07:09:19;;;;;;;11.43;6.63;;;;;;;;;;5042598;28;20029;-78
2023/05/09 07:11:45;;;;;;;9.43;6.32;;;;;;;;;;5041916;28;20030;-80
2023/05/09 07:14:12;;;;;;;11.48;6.55;;;;;;;;;;5043465;28;20017;-80
2023/05/09 07:16:38;;;;;;;8.50;6.03;;;;;;;;;;5044973;28;20048;-78
2023/05/09 07:19:04;;;;;;;13.80;6.00;;;;;;;;;;5061645;28;20025;-80
2023/05/09 07:21:33;;;;;;;8.07;5.68;;;;;;;;;;5043857;28;20032;-78
2023/05/09 07:23:59;;;;;;;8.38;5.68;;;;;;;;;;5050355;28;20029;-78
2023/05/09 07:26:25;;;;;;;9.02;6.32;;;;;;;;;;5062577;28;20518;-81
2023/05/09 07:28:51;;;;;;;10.52;6.07;;;;;;;;;;5066459;28;20100;-80
2023/05/09 07:31:17;;;;;;;8.90;6.32;;;;;;;;;;5066016;28;20041;-80
2023/05/09 07:33:43;;;;;;;9.98;6.32;;;;;;;;;;5066174;28;20124;-80
2023/05/09 07:36:12;;;;;;;8.80;6.00;;;;;;;;;;5065514;28;20025;-82
2023/05/09 07:38:39;;;;;;;9.40;5.55;;;;;;;;;;5065039;28;20045;-82
2023/05/09 07:41:05;;;;;;;7.75;5.60;;;;;;;;;;5055803;28;20467;-79
2023/05/09 07:43:31;;;;;;;11.73;6.70;;;;;;;;;;5044680;28;20025;-79
2023/05/09 07:45:57;;;;;;;8.88;5.60;;;;;;;;;;5042909;28;20040;-78
2023/05/09 07:48:23;;;;;;;10.73;6.25;;;410.20;2252.80;;;;;;5044868;28;20022;-79
2023/05/09 07:50:49;;;;;;;8.40;6.00;;;;;;;;;;5060149;28;20108;-81
2023/05/09 07:53:15;;;;;;;8.60;5.70;;;;;;;;;;5051390;28;20027;-79
2023/05/09 07:55:43;;;;;;;9.90;5.88;;;;;;;;;;5043729;28;20022;-79
2023/05/09 07:58:09;;;;;;;8.85;5.93;;;;;;;;;;5060024;28;20025;-80
2023/05/09 08:00:35;;;;;;;8.52;5.78;;;;;;;;;;5050335;28;20456;-79
2023/05/09 08:03:01;;;;;;;8.45;5.03;;;;;;;;;;5045386;28;20014;-79
2023/05/09 08:05:27;;;;;;;8.32;4.47;;;;;;;;;;5056889;28;20049;-82
2023/05/09 08:07:54;;;;;;;9.25;4.95;;;;;;;;;;5052487;28;20438;-81
2023/05/09 08:10:21;;;;;;;7.47;4.97;;;;;;;;;;5051254;28;20037;-79
2023/05/09 08:12:47;;;;;;;7.80;4.95;;;;;;;;;;5069813;28;20032;-81
2023/05/09 08:15:14;;;;;;;7.68;5.03;;;;;;;;;;5067163;28;20119;-79
2023/05/09 08:17:40;;;;;;;8.00;5.20;;;;;;;;;;5068791;28;20025;-83
2023/05/09 08:20:07;;;;;;;7.25;4.55;;;;;;;;;;5065448;28;20025;-80
2023/05/09 08:22:34;;;;;;;7.82;3.95;;;;;;;;;;5066344;28;20107;-80
2023/05/09 08:25:00;;;;;;;7.03;4.00;;;;;;;;;;5068157;28;20032;-83
2023/05/09 08:27:25;;;;;;;6.47;3.47;;;435.90;2048.00;;;;;;5066188;28;20040;-81
2023/05/09 08:29:51;;;;;;;7.28;3.78;;;435.50;2048.00;;;;;;5056248;28;20420;-79
2023/05/09 08:32:18;;;;;;;5.45;3.72;;;435.90;2048.00;;;;;;5067564;28;20028;-80
2023/05/09 08:34:44;;;;;;;5.50;3.50;;;461.00;2048.00;;;;;;5070935;28;20029;-81
2023/05/09 08:37:10;;;;;;;6.72;3.65;;;436.00;1971.20;;;;;;5063393;28;20040;-82
2023/05/09 08:39:36;;;;;;;6.20;3.50;;;435.90;2022.40;;;;;;5064380;28;20062;-80
2023/05/09 08:42:02;;;;;;;4.75;3.13;;;460.80;2022.40;;;;;;5064328;28;20040;-80
2023/05/09 08:44:30;;;;;;;4.05;2.80;;;436.10;1945.60;;;;;;5059601;28;20052;-79
2023/05/09 08:46:59;;;;;;;10.55;3.65;;;435.70;1920.00;;;;;;5064540;28;20099;-78
2023/05/09 08:49:25;;;;;;;4.95;3.40;;;435.60;1971.20;;;;;;5063136;28;20044;-79
2023/05/09 08:51:51;;;;;;;5.13;3.30;;;435.80;1971.20;;;;;;5065552;28;20025;-80
2023/05/09 08:54:18;;;;;;;6.93;3.10;;;436.00;1996.80;;;;;;5051200;28;20033;-77
2023/05/09 08:56:44;;;;;;;4.85;3.40;;;460.80;1971.20;;;;;;5065592;28;20029;-79
2023/05/09 08:59:10;;;;;;;4.40;3.30;;;461.50;1945.60;;;;;;5066570;28;20024;-81
2023/05/09 09:01:35;;;;;;;3.88;3.08;;;461.50;1920.00;;;;;;5066975;28;20029;-81
2023/05/09 09:04:06;;;;;;;5.70;3.00;;;486.40;1868.80;;;;;;5068303;28;20024;-82
2023/05/09 09:06:35;;;;;;;4.55;3.10;;;486.50;1868.80;;;;;;5067898;28;20045;-81
2023/05/09 09:09:13;;;;;;;12.15;3.90;;;486.40;1843.20;;;;;;5063492;28;20083;-79
2023/05/09 09:11:41;;;;;;;4.88;3.28;;;461.70;1868.80;;;;;;5070871;28;20036;-75
2023/05/09 09:14:24;;;;;;;4.50;3.10;;;486.50;1894.40;;;;;;5071302;28;20017;-80
2023/05/09 09:16:51;;;;;;;4.07;2.90;;;486.90;1843.20;;;;;;5073534;28;20005;-83
2023/05/09 09:19:18;;;;;;;5.18;3.40;;;486.90;1817.60;;;;;;5074047;28;20028;-79
2023/05/09 09:21:46;;;;;;;6.32;2.92;;;487.20;1792.00;;;;;;5070788;28;20037;-75
2023/05/09 09:24:18;;;;;;;5.57;2.90;;;487.30;1792.00;;;;;;5055337;28;20502;-80
2023/05/09 09:26:49;;;;;;;7.82;2.80;;;487.20;1715.20;;;;;;5056084;28;20061;-80
2023/05/09 09:29:17;;;;;;;6.50;3.17;;;;;;;;;;5072666;28;20036;-80
2023/05/09 09:31:45;;;;;;;5.32;2.90;;;486.80;1792.00;;;;;;5067628;28;20029;-78
2023/05/09 09:34:13;;;;;;;4.32;3.00;;;461.70;1817.60;;;;;;5049784;28;20025;-79
2023/05/09 09:36:39;;;;;;;5.45;3.15;;;461.60;1817.60;;;;;;5052336;28;20033;-77
2023/05/09 09:39:05;;;;;;;6.65;3.00;;;461.30;1868.80;;;;;;5046680;28;20425;-79
2023/05/09 09:41:36;;;;;;;6.13;3.35;;;460.80;1894.40;;;;;;5054022;28;20057;-74
2023/05/09 09:44:13;;;;;;;4.65;3.30;;;436.00;1894.40;;;;;;5052024;28;20048;-76
2023/05/09 09:46:49;;;;;;;4.05;3.10;;;461.20;1868.80;;;;;;5065646;28;20033;-81
2023/05/09 09:49:16;;;;;;;7.32;3.40;;;461.60;1868.80;;;;;;5067574;28;20028;-75
2023/05/09 09:51:43;;;;;;;5.82;3.30;;;461.50;1868.80;;;;;;5064677;28;20025;-79
2023/05/09 09:54:13;;;;;;;5.28;3.30;;;486.60;1792.00;;;;;;5062283;28;20028;-77
2023/05/09 09:56:43;;;;;;;5.93;3.17;;;487.10;1792.00;;;;;;5060574;28;20025;-80
2023/05/09 09:59:13;;;;;;;5.45;3.20;;;512.80;1740.80;;;;;;5054850;28;20025;-78
2023/05/09 10:01:51;;;;;;;5.57;3.33;;;;;;;;;;5052858;28;20037;-79
2023/05/09 10:04:17;;;;;;;4.80;3.20;;;;;;;;;;5049575;28;20019;-79
2023/05/09 10:06:54;;;;;;;4.75;3.25;;;563.20;1638.40;;;;;;5053417;28;20131;-79
2023/05/09 10:09:21;;;;;;;5.68;3.40;;;563.20;1689.60;;;;;;5051875;28;20021;-84
2023/05/09 10:11:50;;;;;;;5.05;3.50;;;563.40;1664.00;;;;;;5052931;28;20025;-78
2023/05/09 10:14:24;;;;;;;5.00;3.60;;;563.30;1638.40;;;;;;5053806;28;20052;-84
2023/05/09 10:16:56;;;;;;;5.70;3.20;;;563.20;1612.80;;;;;;5044985;28;20116;-79
2023/05/09 10:19:23;;;;;;;4.40;3.40;;;563.20;1587.20;;;;;;5040966;28;20044;-83
2023/05/09 10:21:55;;;;;;;5.07;3.40;;;538.50;1587.20;;;;;;5053644;28;20029;-83
2023/05/09 10:24:34;;;;;;;5.30;3.70;;;537.80;1561.60;;;;;;5053563;28;20025;-80
2023/05/09 10:27:06;;;;;;;7.80;3.58;;;538.00;1612.80;;;;;;5051009;28;20068;-87
2023/05/09 10:29:43;;;;;;;7.38;4.10;;;538.20;1612.80;;;;;;5052726;28;20132;-85
2023/05/09 10:32:22;;;;;;;6.75;3.60;;;538.50;1612.80;;;;;;5047297;28;20017;-85
2023/05/09 10:34:52;;;;;;;4.88;3.70;;;538.40;1561.60;;;;;;5052809;28;20119;-86
2023/05/09 10:37:20;;;;;;;15.40;4.55;;;538.40;1536.00;;;;;;5043976;28;20053;-86
2023/05/09 10:39:51;;;;;;;5.95;3.30;;;563.20;1561.60;;;;;;5053678;28;20041;-87
2023/05/09 10:42:18;;;;;;;4.65;3.40;;;563.60;1510.40;;;;;;5055566;28;20028;-89
2023/05/09 10:44:44;;;;;;;5.82;3.92;;;;;;;;;;5057971;28;20104;-89
2023/05/09 10:47:12;;;;;;;7.47;4.38;;;;;;;;;;5057726;28;20159;-81
2023/05/09 10:49:38;;;;;;;5.90;4.15;;;;;;;;;;5056903;28;20032;-86
2023/05/09 10:52:04;;;;;;;5.00;3.83;;;588.80;1510.40;;;;;;5057737;28;20029;-86
2023/05/09 10:54:32;;;;;;;8.27;3.83;;;564.00;1510.40;;;;;;5051194;28;20118;-82
2023/05/09 10:56:59;;;;;;;4.53;3.60;;;564.00;1459.20;;;;;;5055705;28;20025;-81
2023/05/09 10:59:31;;;;;;;6.00;3.97;;;563.70;1433.60;;;;;;5052816;28;20052;-79
2023/05/09 11:02:01;;;;;;;5.80;3.70;;;563.30;1484.80;;;;;;5044766;28;20055;-81
2023/05/09 11:04:28;;;;;;;4.72;3.35;;;563.20;1484.80;;;;;;5056555;28;20025;-77
2023/05/09 11:06:54;;;;;;;6.05;3.50;;;;;;;;;;5055319;28;20099;-76
2023/05/09 11:09:36;;;;;;;6.22;2.80;;;564.00;1484.80;;;;;;5055742;28;20021;-77
2023/05/09 11:12:13;;;;;;;6.57;2.97;;;564.00;1459.20;;;;;;5051705;28;20037;-82
2023/05/09 11:14:41;;;;;;;4.57;3.05;;;563.20;1408.00;;;;;;5051984;28;20033;-78
2023/05/09 11:17:28;;;;;;;4.68;3.10;;;563.30;1484.80;;;;;;5048684;28;20087;-82
2023/05/09 11:19:58;;;;;;;5.95;4.00;;;563.20;1459.20;;;;;;5054429;28;20032;-81
2023/05/09 11:22:43;;;;;;;5.20;3.22;;;538.40;1484.80;;;;;;5055515;28;20462;-78
2023/05/09 11:25:13;;;;;;;6.65;3.53;;;563.20;1484.80;;;;;;5053646;28;20044;-80
2023/05/09 11:27:43;;;;;;;5.63;3.58;;;537.90;1561.60;;;;;;5052572;28;20108;-80
2023/05/09 11:30:13;;;;;;;5.53;3.63;;;538.20;1510.40;;;;;;5055274;28;20025;-76
2023/05/09 11:32:52;;;;;;;5.00;3.28;;;563.20;1536.00;;;;;;5047413;28;20457;-77
2023/05/09 11:35:19;;;;;;;6.05;4.55;;;538.50;1433.60;;;;;;5050351;28;20028;-77
2023/05/09 11:37:51;;;;;;;5.30;3.45;;;512.90;1484.80;;;;;;5053440;28;20040;-87
2023/05/09 11:40:19;;;;;;;4.80;3.70;;;512.90;1484.80;;;;;;5053094;28;20116;-87
2023/05/09 11:42:48;;;;;;;4.88;3.60;;;512.70;1484.80;;;;;;5055673;28;20025;-87
2023/05/09 11:45:15;;;;;;;5.32;3.33;;;537.90;1484.80;;;;;;5056337;28;20021;-88
2023/05/09 11:47:41;;;;;;;4.97;3.47;;;538.40;1484.80;;;;;;5056239;28;20065;-88
2023/05/09 11:50:08;;;;;;;5.72;3.65;;;538.50;1459.20;;;;;;5053178;28;20486;-89
2023/05/09 11:52:36;;;;;;;5.72;3.85;;;538.40;1459.20;;;;;;5055421;28;20089;-88
2023/05/09 11:55:01;;;;;;;6.65;4.20;;;512.80;1510.40;;;;;;5053841;28;20045;-87
2023/05/09 11:57:28;;;;;;;5.82;4.38;;;537.70;1536.00;;;;;;5052173;28;20036;-88
2023/05/09 11:59:54;;;;;;;6.60;4.10;;;537.70;1510.40;;;;;;5053138;28;20025;-86
2023/05/09 12:02:21;;;;;;;5.63;3.92;;;537.70;1536.00;;;;;;5051350;28;20061;-87
2023/05/09 12:04:48;;;;;;;5.78;4.18;;;537.60;1536.00;;;;;;5051764;28;20058;-88
2023/05/09 12:07:15;;;;;;;5.88;4.20;;;512.90;1510.40;;;;;;5053960;28;20572;-88
2023/05/09 12:09:42;;;;;;;7.80;6.63;;;512.80;1510.40;;;;;;5054820;28;20029;-86
2023/05/09 12:12:12;;;;;;;4.85;3.75;;;512.60;1561.60;;;;;;5055499;28;20032;-87
2023/05/09 12:14:39;;;;;;;6.88;4.75;;;512.30;1612.80;;;;;;5055212;28;20056;-88
2023/05/09 12:17:08;;;;;;;7.45;5.40;;;512.50;1638.40;;;;;;5055235;28;20033;-88
2023/05/09 12:19:35;;;;;;;8.80;5.97;;;512.70;1561.60;;;;;;5055740;28;20035;-86
2023/05/09 12:22:04;;;;;;;6.50;4.85;;;512.70;1561.60;;;;;;5051300;28;20376;-87
2023/05/09 12:24:30;;;;;;;7.18;5.63;;;512.20;1587.20;;;;;;5055924;28;20036;-88
2023/05/09 12:26:57;;;;;;;8.20;4.40;;;512.00;1612.80;;;;;;5053755;28;20124;-89
2023/05/09 12:29:24;;;;;;;7.22;4.38;;;487.20;1638.40;;;;;;5055393;28;20026;-86
2023/05/09 12:31:52;;;;;;;6.70;4.40;;;512.00;1638.40;;;;;;5051795;28;20033;-82
2023/05/09 12:34:18;;;;;;;6.43;4.43;;;537.60;1638.40;;;;;;5052097;28;20049;-86
2023/05/09 12:36:49;;;;;;;5.65;4.47;;;538.10;1536.00;;;;;;5055766;28;20744;-87
2023/05/09 12:39:23;;;;;;;5.28;3.92;;;;;;;;;;5054536;28;20108;-88
2023/05/09 12:41:49;;;;;;;6.30;4.30;;;563.50;1536.00;;;;;;5054489;28;20029;-79
2023/05/09 12:44:24;;;;;;;8.20;4.57;;;563.20;1510.40;;;;;;5055155;28;20378;-88
2023/05/09 12:47:01;;;;;;;10.38;9.32;;;563.70;1484.80;;;;;;5054728;28;20041;-87
2023/05/09 12:49:28;;;;;;;6.43;4.95;;;538.40;1484.80;;;;;;5059031;28;20433;-87
2023/05/09 12:51:57;;;;;;;6.57;4.60;;;538.50;1536.00;;;;;;5050964;28;20475;-84
2023/05/09 12:54:28;;;;;;;7.22;4.70;;;537.90;1510.40;;;;;;5053754;28;20029;-86
2023/05/09 12:56:56;;;;;;;8.77;4.80;;;538.10;1510.40;;;;;;5051919;28;20025;-87
2023/05/09 12:59:23;;;;;;;5.70;4.30;;;563.40;1484.80;;;;;;5052856;28;20509;-88
2023/05/09 13:01:56;;;;;;;6.00;4.25;;;563.30;1766.40;;;;;;5054536;28;20025;-86
2023/05/09 13:04:24;;;;;;;7.90;4.78;;;538.30;1484.80;;;;;;5048821;28;20044;-86
2023/05/09 13:06:54;;;;;;;5.88;4.43;;;537.60;1510.40;;;;;;5048410;28;20032;-82
2023/05/09 13:09:52;;;;;;;7.40;4.50;;;538.10;1536.00;;;;;;5051979;28;20795;-87
2023/05/09 13:12:19;;;;;;;5.32;4.40;;;512.70;1587.20;;;;;;5052962;28;20079;-86
2023/05/09 13:14:45;;;;;;;5.70;4.10;;;487.20;1638.40;;;;;;5052786;28;20036;-85
2023/05/09 13:17:11;;;;;;;7.13;5.22;;;;;;;;;;5054226;28;20033;-86
2023/05/09 13:19:38;;;;;;;7.22;4.95;;;;;;;;;;5054428;28;20075;-86
2023/05/09 13:22:04;;;;;;;8.90;4.70;;;;;;;;;;5054111;28;20403;-86
2023/05/09 13:24:31;;;;;;;7.95;4.93;;;;;;;;;;5053657;28;20063;-87
2023/05/09 13:26:57;;;;;;;7.18;5.13;;;487.20;1612.80;;;;;;5053172;28;20053;-86
2023/05/09 13:29:22;;;;;;;5.78;4.07;;;487.00;1612.80;;;;;;5052479;28;20032;-87
2023/05/09 13:31:48;;;;;;;8.95;4.80;;;487.30;1612.80;;;;;;5054182;28;20078;-87
2023/05/09 13:34:14;;;;;;;9.10;6.82;;;487.30;1996.80;;;;;;5052215;28;20037;-85
2023/05/09 13:36:39;;;;;;;7.32;4.55;;;512.00;1664.00;;;;;;5048526;28;20025;-84
2023/05/09 13:39:05;;;;;;;7.97;4.63;;;487.30;1664.00;;;;;;5044485;28;20052;-86
2023/05/09 13:41:32;;;;;;;7.53;5.00;;;;;;;;;;5049166;28;20112;-78
2023/05/09 13:43:58;;;;;;;7.03;4.18;;;487.30;2022.40;;;;;;5051284;28;21294;-77
2023/05/09 13:46:24;;;;;;;5.75;3.90;;;487.20;1612.80;;;;;;5052137;28;20565;-84
2023/05/09 13:48:49;;;;;;;5.88;3.78;;;487.20;1638.40;;;;;;5053004;28;20043;-85
2023/05/09 13:51:15;;;;;;;15.30;5.15;;;487.10;1638.40;;;;;;5053803;28;20029;-78
2023/05/09 13:53:56;;;;;;;5.60;3.75;;;487.00;1612.80;;;;;;5051921;28;20083;-80
2023/05/09 13:56:22;;;;;;;8.80;4.00;;;487.00;1587.20;;;;;;5053695;28;20501;-82